Погода Фрмантлна неделю

Западная Австралия, Австралия

17 - 23 января
  • 17января
    Сегодня
    +22°
    +31°
    Ясно и безоблачно
    ВремяПогодаТемператураВлажностьДавлениеВетер, м/сВероятность осадков
    02:00Ясно и безоблачно+19°C53 %754 мм3.4 м/с5 %
    05:00Ясно и безоблачно+17°C57 %755 мм2.3 м/с5 %
    08:00Ясно и безоблачно+20°C47 %756 мм2.6 м/с5 %
    11:00Ясно и безоблачно+28°C34 %755 мм2.5 м/с5 %
    14:00Ясно и безоблачно+31°C35 %753 мм4.1 м/с5 %
    17:00Ясно и безоблачно+30°C43 %754 мм4.8 м/с5 %
    20:00Ясно и безоблачно+25°C57 %754 мм2.8 м/с5 %
    23:00Ясно и безоблачно+23°C63 %754 мм1.9 м/с5 %
  • 18января
    Вторник
    +26°
    +38°
    Практически безоблачно
    ВремяПогодаТемператураВлажностьДавлениеВетер, м/сВероятность осадков
    02:00Ясно и безоблачно+24°C42 %753 мм3.4 м/с5 %
    05:00Ясно и безоблачно+24°C43 %754 мм2.8 м/с5 %
    08:00Ясно и безоблачно+30°C37 %755 мм4.3 м/с5 %
    11:00Ясно и безоблачно+36°C25 %755 мм4.0 м/с5 %
    14:00Практически безоблачно+38°C25 %754 мм3.6 м/с5 %
    17:00Практически безоблачно+34°C39 %754 мм4.1 м/с5 %
    20:00Ясно и безоблачно+31°C46 %754 мм2.9 м/с5 %
    23:00Ясно и безоблачно+29°C44 %754 мм2.0 м/с5 %
  • 19января
    Среда
    +23°
    +40°
    Ясно и безоблачно
    ВремяПогодаТемператураВлажностьДавлениеВетер, м/сВероятность осадков
    02:00Ясно и безоблачно+28°C31 %754 мм2.5 м/с5 %
    05:00Ясно и безоблачно+27°C27 %755 мм3.0 м/с5 %
    08:00Ясно и безоблачно+30°C23 %756 мм3.9 м/с5 %
    11:00Ясно и безоблачно+36°C16 %755 мм3.6 м/с5 %
    14:00Ясно и безоблачно+39°C15 %754 мм3.8 м/с5 %
    17:00Ясно и безоблачно+36°C26 %753 мм3.9 м/с5 %
    20:00Ясно и безоблачно+31°C30 %755 мм2.5 м/с5 %
    23:00Ясно и безоблачно+29°C31 %755 мм1.9 м/с5 %
  • 20января
    Четверг
    +24°
    +39°
    Ясно и безоблачно
    ВремяПогодаТемператураВлажностьДавлениеВетер, м/сВероятность осадков
    02:00Ясно и безоблачно+26°C33 %754 мм1.1 м/с5 %
    05:00Ясно и безоблачно+24°C22 %755 мм0.9 м/с5 %
    08:00Ясно и безоблачно+30°C18 %757 мм2.8 м/с5 %
    11:00Ясно и безоблачно+36°C13 %756 мм2.4 м/с5 %
    14:00Ясно и безоблачно+39°C16 %755 мм4.7 м/с5 %
    17:00Ясно и безоблачно+34°C22 %755 мм4.5 м/с5 %
    20:00Ясно и безоблачно+29°C35 %756 мм2.9 м/с5 %
    23:00Ясно и безоблачно+28°C38 %756 мм1.6 м/с5 %
  • 21января
    Пятница
    +23°
    +40°
    Ясно и безоблачно
    ВремяПогодаТемператураВлажностьДавлениеВетер, м/сВероятность осадков
    02:00Ясно и безоблачно+27°C22 %756 мм2.1 м/с5 %
    05:00Ясно и безоблачно+25°C25 %757 мм2.4 м/с5 %
    08:00Ясно и безоблачно+28°C23 %758 мм3.4 м/с5 %
    11:00Ясно и безоблачно+36°C13 %757 мм2.9 м/с5 %
    14:00Ясно и безоблачно+40°C11 %755 мм4.5 м/с5 %
    17:00Ясно и безоблачно+37°C18 %755 мм4.0 м/с5 %
    20:00Ясно и безоблачно+30°C29 %756 мм3.0 м/с5 %
    23:00Ясно и безоблачно+28°C28 %756 мм1.6 м/с5 %
  • 22января
    Суббота
    +24°
    +40°
    Ясно и безоблачно
    ВремяПогодаТемператураВлажностьДавлениеВетер, м/сВероятность осадков
    02:00Ясно и безоблачно+27°C21 %756 мм2.2 м/с5 %
    08:00Ясно и безоблачно+28°C34 %756 мм3.1 м/с5 %
    14:00Ясно и безоблачно+38°C15 %753 мм3.8 м/с5 %
    20:00Ясно и безоблачно+29°C36 %754 мм2.7 м/с5 %
  • 23января
    Воскресенье
    +22°
    +35°
    Ясно и безоблачно
    ВремяПогодаТемператураВлажностьДавлениеВетер, м/сВероятность осадков
    02:00Ясно и безоблачно+24°C40 %753 мм1.4 м/с5 %
    08:00Ясно и безоблачно+30°C36 %754 мм2.4 м/с5 %
    14:00Ясно и безоблачно+34°C34 %752 мм5.0 м/с5 %
    20:00Ясно и безоблачно+30°C48 %753 мм3.1 м/с5 %
Мы используем cookies
Соглашаюсь